Aviation Digital Data Service (ADDS)

Output produced by METARs form (0429 UTC 26 May 2018)
found at http://www.aviationweather.gov/adds/metars/
 
KGBD 252320Z 2600/2624 18006KT P6SM FEW250 
     FM260500 21007KT P6SM FEW250 
     FM261800 16012KT P6SM SKC AMD LTD TO CLD VIS AND WIND
       
KGCC 252356Z 2600/2624 VRB05KT P6SM SKC
       
KGCK 252320Z 2600/2624 11009G16KT P6SM SKC 
     FM261700 16012G22KT P6SM SKC
       
KGCN 252327Z 2600/2624 21018G28KT P6SM SKC 
     FM260200 22008KT P6SM SKC 
     FM261500 21010G20KT P6SM SKC 
     FM261800 22020G33KT P6SM SKC
       
KGDV 252321Z 2600/2624 28011KT P6SM SKC 
     FM260300 VRB05KT P6SM SKC
       
KGEG 252329Z 2600/2624 24007KT P6SM FEW060 OVC200 
     FM260100 25007KT P6SM SCT120 OVC170 
     FM260800 21008KT P6SM SCT100 OVC150 
     FM262100 22010G16KT P6SM SCT050 BKN120
       
KGFK 252340Z 2600/2624 28013G30KT P6SM SCT090 
     FM260200 26008KT P6SM FEW080 
     FM260600 28006KT P6SM FEW250 
     FM261000 VRB04KT P6SM FEW250 
     FM261600 28009KT P6SM SKC
       
KGFL 252334Z 2600/2624 25006KT P6SM BKN100 
     FM260800 VRB03KT P6SM SCT100 SCT250 
     FM261400 19006KT P6SM BKN250 
     FM262100 01007KT P6SM BKN050 BKN100
       
KGGG 260003Z 2600/2624 VRB05KT P6SM SCT050 BKN120 
     FM260200 17005KT P6SM FEW050 SCT120 
     FM261100 19008KT 5SM BR VCTS SCT035CB BKN090 
     FM261400 20007KT P6SM FEW040 BKN090 
     FM262000 23006KT P6SM SCT090 SCT250
       
KGGW 252321Z 2600/2624 29009KT P6SM FEW110 
     FM261200 VRB05KT P6SM FEW110 
     FM261700 17011KT P6SM FEW110 
     FM262000 20009KT P6SM FEW100
       
KGJT 252320Z 2600/2624 20010G18KT P6SM SKC 
     FM260500 10005KT P6SM SKC 
     FM261200 13006KT P6SM SKC 
     FM261800 20012G20KT P6SM FEW250
       
KGKY 260320Z 2603/2624 15008KT P6SM SCT250 
     FM260600 16010KT P6SM VCSH SCT060 BKN250 
     FM261000 17010KT P6SM SCT080 BKN250
       
KGLD 252336Z 2600/2624 VRB05KT P6SM FEW100 
     FM260400 VRB05KT P6SM SKC 
     FM261200 21010KT P6SM SKC 
     FM261800 17016KT P6SM SKC
       
KGLH 252344Z 2600/2624 VRB06KT P6SM -SHRA VCTS SCT050 BKN090CB 
     FM260200 16004KT P6SM VCSH BKN050 BKN090 
     FM260900 20004KT P6SM SCT020 BKN050 BKN250 
     FM261500 22004KT P6SM VCTS SCT030 BKN050CB BKN250 
     FM261900 27006KT 6SM SHRA VCTS SCT030 BKN050CB
       
KGLS 252320Z 2600/2624 15010KT P6SM FEW045 SCT250 
     FM260600 19006KT P6SM FEW250 
     FM261000 21007KT P6SM BKN015 
     FM261400 22007KT P6SM SCT025 
     FM261800 19010KT P6SM SKC
       
KGMU 260322Z 2603/2624 16006KT P6SM VCSH SCT015 BKN035 
     TEMPO 2603/2605 5SM SHRA BR SCT008 BKN015 OVC035 
     FM260500 21003KT 6SM BR VCSH OVC013 
     FM260800 VRB02KT 5SM BR OVC006 
     FM261500 21005KT P6SM OVC012 
     FM261900 21007KT P6SM BKN035 
     PROB30 2619/2624 4SM -TSRA OVC025CB
       
KGNV 252340Z 2600/2624 16007KT P6SM VCSH SCT035 BKN050 OVC250 
     FM260300 14002KT P6SM FEW030 SCT050 BKN250 
     FM261400 11006KT P6SM BKN040 OVC250 
     FM261600 14008KT P6SM VCSH SCT035 BKN100
       
KGON 260230Z 2603/2624 VRB05KT P6SM FEW250 
     FM261300 23007KT P6SM FEW250 
     FM261600 21011KT P6SM FEW060 SCT250 
     FM262200 21006KT P6SM SCT060 BKN150
       
KGPT 252320Z 2600/2624 VRB03KT P6SM SCT045 BKN250 
     PROB30 2609/2613 4SM -SHRA BKN025 
     FM261500 VRB05KT P6SM SCT020 BKN080 
     PROB30 2618/2624 4SM TSRA BKN035CB
       
KGRB 260320Z 2603/2624 20006KT P6SM BKN120 
     FM260600 23004KT P6SM SCT080 
     TEMPO 2609/2612 3SM BR 
     FM261400 25006KT P6SM SCT040 
     PROB30 2620/2624 6SM -TSRA BKN040CB
       
TAF KGRF 252103Z 2521/2703 27009KT 9999 SCT040 QNH2999INS 
     BECMG 2609/2610 22009KT 9999 SCT015 BKN020 QNH3008INS 
     BECMG 2618/2619 22009KT 9999 SCT020 QNH3015INS TX21/2523Z TN09/2612Z
       
KGRI 252353Z 2600/2624 VRB06KT P6SM FEW080 
     FM261600 21007KT P6SM SKC 
     FM261900 18009KT P6SM SKC
       
TAF KGRK 260000Z 2600/2706 20009KT 9999 SKC QNH2980INS TX35/2621Z TN20/2612Z
       
KGRR 252340Z 2600/2624 23008KT P6SM BKN250 
     FM261200 21006KT P6SM VCSH BKN070 
     FM261500 24008KT P6SM BKN250
       
KGSO 252322Z 2600/2624 21005KT P6SM SCT040 BKN100 
     FM261000 19004KT P6SM SCT007 OVC017 
     FM261400 22010KT P6SM SCT015 BKN025 
     FM261700 21008KT P6SM VCTS BKN025CB
       
KGSP 260424Z 2604/2624 16004KT 6SM -SHRA BR SCT004 OVC012 
     TEMPO 2604/2606 BKN004 OVC012 
     FM260600 VRB02KT 5SM BR OVC005 
     FM261500 21005KT P6SM OVC012 
     FM261900 21007KT P6SM BKN035 
     PROB30 2619/2624 4SM -TSRA OVC025CB
       
TAF KGTB 260100Z 2601/2707 22012KT 9999 BKN075 WS020/26045KT QNH2970INS 
     TEMPO 2602/2606 8000 -SHRA BKN030 
     BECMG 2608/2609 22012KT 8000 -SHRA BKN050 QNH2970INS 
     BECMG 2612/2613 23012KT 9999 NSW BKN050 QNH2970INS 
     BECMG 2616/2617 23012KT 9000 -SHRA BKN020 OVC050 QNH2978INS 
     BECMG 2619/2620 36006KT 9999 NSW SCT020 BKN050 QNH2983INS TX26/2621Z TN16/2609Z
       
KGTF 260340Z 2604/2624 18009KT P6SM VCTS SCT050CB BKN080 
     TEMPO 2604/2606 VRB15G27KT -TSRA 
     FM260600 21005KT P6SM FEW050 FEW080 
     FM262200 21010KT P6SM VCSH SCT050 BKN080
       
KGTR 252344Z 2600/2624 VRB10KT 6SM -TSRA SCT030 BKN060CB 
     FM260200 17005KT P6SM BKN090 
     FM261100 17004KT 6SM BR BKN025 BKN090 
     FM261300 18004KT P6SM FEW025 SCT090 
     FM261500 18005KT P6SM VCTS SCT025 BKN040CB 
     FM261900 17005KT 6SM SHRA VCTS SCT030 BKN050CB
       
KGUC 252320Z 2600/2624 26012G18KT P6SM SKC 
     FM260200 28006KT P6SM SKC 
     FM261600 13005KT P6SM FEW250 
     FM261800 17008KT P6SM FEW250 
     FM262200 19015G25KT P6SM SCT200
       
KGUP 252320Z 2600/2624 22010G20KT P6SM SKC 
     FM260300 23008KT P6SM SKC 
     FM260600 VRB03KT P6SM FEW250 
     FM261600 21012G20KT P6SM SCT250 
     FM262000 22022G33KT P6SM BKN200
       
TAF KGUS 260300Z 2603/2709 VRB06KT 9999 SCT030 QNH2977INS 
     BECMG 2609/2610 23009KT 6000 -SHRA BKN020 OVC030 QNH2973INS 
     TEMPO 2611/2614 20020G40KT 4800 -TSRA FEW010 OVC020CB 
     BECMG 2617/2618 30006KT 9999 NSW SCT035 QNH2972INS TX29/2620Z TN19/2611Z
       
KGWO 252344Z 2600/2624 17003KT P6SM VCTS SCT050 BKN090CB 
     FM260200 16004KT P6SM VCSH BKN050 OVC130 
     FM260500 17003KT P6SM BKN050 BKN090 
     FM261200 19003KT 5SM BR SCT015 BKN050 BKN090 
     FM261400 19004KT P6SM FEW050 SCT090 
     FM261600 20004KT P6SM VCTS SCT020 BKN040CB 
     FM261800 21005KT 6SM SHRA VCTS SCT030 BKN050CB
       
KGYY 260257Z 2603/2624 22005KT P6SM VCSH SCT070 BKN120 
     TEMPO 2603/2605 4SM -SHRA BKN060 OVC100 
     FM260700 20006KT P6SM SCT050 BKN150 
     FM261600 23008KT P6SM FEW050 SCT250